createdAt,value
2016-05-28T00:00:36.407Z,79.99
2016-05-28T00:01:36.457Z,79.99
2016-05-28T00:02:36.491Z,79.8
2016-05-28T00:03:36.557Z,79.99
2016-05-28T00:04:36.590Z,79.8
2016-05-28T00:05:36.624Z,79.89
2016-05-28T00:06:36.690Z,79.99
2016-05-28T00:07:36.551Z,79.99
2016-05-28T00:08:36.743Z,79.89
2016-05-28T00:09:36.807Z,79.8
2016-05-28T00:10:36.872Z,79.99
2016-05-28T00:11:36.876Z,79.89
2016-05-28T00:12:36.909Z,79.99
2016-05-28T00:13:36.943Z,79.99
2016-05-28T00:14:37.024Z,80.08
2016-05-28T00:15:36.917Z,80.08
2016-05-28T00:16:37.076Z,79.89
2016-05-28T00:17:37.125Z,80.18
2016-05-28T00:18:37.159Z,80.08
2016-05-28T00:19:37.193Z,80.18
2016-05-28T00:20:37.228Z,80.08
2016-05-28T00:21:37.386Z,79.89
2016-05-28T00:22:37.155Z,80.08
2016-05-28T00:23:37.189Z,80.18
2016-05-28T00:24:37.395Z,79.8
2016-05-28T00:25:37.444Z,80.66
2016-05-28T00:26:37.493Z,79.8
2016-05-28T00:27:37.512Z,79.99
2016-05-28T00:28:37.577Z,80.08
2016-05-28T00:29:37.642Z,79.99
2016-05-28T00:30:37.645Z,79.8
2016-05-28T00:31:37.679Z,79.99
2016-05-28T00:32:37.728Z,79.89
2016-05-28T00:33:37.794Z,80.08
2016-05-28T00:34:37.827Z,80.08
2016-05-28T00:35:37.861Z,80.18
2016-05-28T00:36:37.880Z,79.8
2016-05-28T00:37:37.930Z,79.99
2016-05-28T00:38:37.979Z,80.37
2016-05-28T00:39:37.997Z,80.08
2016-05-28T00:40:38.093Z,79.7
2016-05-28T00:41:38.081Z,79.8
2016-05-28T00:42:38.130Z,80.08
2016-05-28T00:43:38.180Z,79.22
2016-05-28T00:44:38.214Z,79.7
2016-05-28T00:45:38.248Z,79.51
2016-05-28T00:46:38.329Z,79.41
2016-05-28T00:47:38.363Z,79.41
2016-05-28T00:48:38.381Z,79.51
2016-05-28T00:49:38.415Z,79.6
2016-05-28T00:50:38.464Z,79.8
2016-05-28T00:51:38.529Z,79.6
2016-05-28T00:52:38.548Z,79.03
2016-05-28T00:53:38.581Z,79.51
2016-05-28T00:54:38.491Z,79.41
2016-05-28T00:55:38.665Z,79.51
2016-05-28T00:56:38.714Z,79.6
2016-05-28T00:57:38.750Z,79.6
2016-05-28T00:58:38.814Z,79.32
2016-05-28T00:59:38.832Z,79.51
2016-05-28T01:00:38.711Z,79.13
2016-05-28T01:01:38.916Z,80.08
2016-05-28T01:02:38.949Z,79.7
2016-05-28T01:03:38.999Z,80.08
2016-05-28T01:04:39.064Z,80.33
2016-05-28T01:05:39.099Z,80.56
2016-05-28T01:06:39.116Z,81.13
2016-05-28T01:07:39.166Z,81.23
2016-05-28T01:08:39.200Z,81.2
2016-05-28T01:09:39.266Z,81.86
2016-05-28T01:10:39.363Z,81.96
2016-05-28T01:11:39.223Z,82.15
2016-05-28T01:12:39.476Z,82.06
2016-05-28T01:13:39.401Z,82.43
2016-05-28T01:14:39.435Z,82.63
2016-05-28T01:15:39.515Z,82.15
2016-05-28T01:16:39.379Z,82.43
2016-05-28T01:17:39.553Z,82.15
2016-05-28T01:18:39.602Z,82.63
2016-05-28T01:19:39.667Z,82.24
2016-05-28T01:20:39.686Z,82.82
2016-05-28T01:21:39.720Z,82.06
2016-05-28T01:22:39.769Z,82.43
2016-05-28T01:23:39.850Z,82.24
2016-05-28T01:24:39.853Z,82.24
2016-05-28T01:25:39.902Z,82.06
2016-05-28T01:26:39.920Z,82.34
2016-05-28T01:27:39.844Z,82.73
2016-05-28T01:28:40.020Z,82.82
2016-05-28T01:29:40.054Z,82.43
2016-05-28T01:30:40.150Z,82.82
2016-05-28T01:31:40.012Z,82.63
2016-05-28T01:32:40.186Z,82.82
2016-05-28T01:33:40.236Z,82.53
2016-05-28T01:34:40.567Z,82.53
2016-05-28T01:35:40.288Z,82.53
2016-05-28T01:36:40.338Z,82.73
2016-05-28T01:37:40.388Z,82.53
2016-05-28T01:38:40.421Z,82.53
2016-05-28T01:39:40.455Z,82.34
2016-05-28T01:40:40.535Z,82.53
2016-05-28T01:41:40.539Z,82.73
2016-05-28T01:42:40.573Z,82.73
2016-05-28T01:43:40.623Z,82.43
2016-05-28T01:44:40.688Z,82.82
2016-05-28T01:45:40.706Z,82.63
2016-05-28T01:46:40.756Z,82.63
2016-05-28T01:47:40.790Z,82.63
2016-05-28T01:48:40.854Z,82.73
2016-05-28T01:49:40.873Z,82.63
2016-05-28T01:50:40.892Z,82.63
2016-05-28T01:51:40.956Z,82.63
2016-05-28T01:52:40.990Z,82.53
2016-05-28T01:53:41.024Z,82.34
2016-05-28T01:54:41.089Z,82.73
2016-05-28T01:55:41.139Z,82.63
2016-05-28T01:56:41.158Z,82.73
2016-05-28T01:57:41.192Z,82.15
2016-05-28T01:58:41.256Z,82.34
2016-05-28T01:59:41.119Z,82.24
2016-05-28T02:00:41.325Z,82.24
2016-05-28T02:01:41.374Z,82.63
2016-05-28T02:02:41.424Z,82.73
2016-05-28T02:03:41.441Z,82.53
2016-05-28T02:04:41.475Z,82.43
2016-05-28T02:05:41.525Z,83.39
2016-05-28T02:06:41.591Z,83.11
2016-05-28T02:07:41.609Z,83.2
2016-05-28T02:08:41.643Z,83.3
2016-05-28T02:09:41.693Z,83.01
2016-05-28T02:10:41.727Z,83.11
2016-05-28T02:11:41.745Z,83.11
2016-05-28T02:12:41.810Z,82.82
2016-05-28T02:13:41.843Z,83.11
2016-05-28T02:14:41.877Z,83.01
2016-05-28T02:15:41.927Z,83.2
2016-05-28T02:16:41.977Z,82.82
2016-05-28T02:17:42.010Z,83.11
2016-05-28T02:18:41.888Z,83.2
2016-05-28T02:19:42.078Z,83.11
2016-05-28T02:20:42.129Z,83.25
2016-05-28T02:21:42.178Z,83.49
2016-05-28T02:22:42.211Z,82.96
2016-05-28T02:23:42.262Z,82.92
2016-05-28T02:24:42.326Z,82.82
2016-05-28T02:25:42.329Z,82.34
2016-05-28T02:26:42.379Z,83.05
2016-05-28T02:27:42.397Z,82.92
2016-05-28T02:28:42.306Z,82.24
2016-05-28T02:29:42.497Z,83.11
2016-05-28T02:30:42.561Z,82.43
2016-05-28T02:31:42.408Z,82.43
2016-05-28T02:32:42.598Z,82.48
2016-05-28T02:33:42.647Z,82.48
2016-05-28T02:34:42.556Z,82.34
2016-05-28T02:35:42.730Z,82.24
2016-05-28T02:36:42.780Z,82.43
2016-05-28T02:37:42.847Z,82.53
2016-05-28T02:38:42.864Z,82.43
2016-05-28T02:39:42.914Z,82.53
2016-05-28T02:40:42.947Z,82.67
2016-05-28T02:41:42.997Z,82.63
2016-05-28T02:42:43.046Z,82.86
2016-05-28T02:43:43.066Z,82.63
2016-05-28T02:44:43.083Z,82.82
2016-05-28T02:45:43.164Z,82.82
2016-05-28T02:46:43.183Z,82.73
2016-05-28T02:47:43.232Z,82.43
2016-05-28T02:48:43.266Z,82.63
2016-05-28T02:49:43.159Z,82.63
2016-05-28T02:50:43.334Z,82.82
2016-05-28T02:51:43.384Z,82.06
2016-05-28T02:52:43.480Z,82.82
2016-05-28T02:53:43.468Z,83.3
2016-05-28T02:54:43.516Z,83.3
2016-05-28T02:55:43.581Z,83.2
2016-05-28T02:56:43.600Z,83.2
2016-05-28T02:57:43.618Z,82.96
2016-05-28T02:58:43.667Z,83.3
2016-05-28T02:59:43.748Z,83.11
2016-05-28T03:00:43.751Z,83.11
2016-05-28T03:01:43.800Z,82.92
2016-05-28T03:02:43.836Z,83.05
2016-05-28T03:03:43.947Z,83.11
2016-05-28T03:04:44.325Z,83.11
2016-05-28T03:05:43.952Z,82.92
2016-05-28T03:06:44.002Z,83.11
2016-05-28T03:07:44.035Z,82.82
2016-05-28T03:08:44.102Z,83.11
2016-05-28T03:09:44.119Z,82.73
2016-05-28T03:10:44.200Z,83.25
2016-05-28T03:11:44.203Z,82.82
2016-05-28T03:12:44.238Z,83.39
2016-05-28T03:13:44.286Z,83.11
2016-05-28T03:14:44.352Z,82.86
2016-05-28T03:15:44.370Z,83.2
2016-05-28T03:16:44.419Z,83.01
2016-05-28T03:17:44.453Z,83.11
2016-05-28T03:18:44.472Z,83.2
2016-05-28T03:19:44.693Z,83.11
2016-05-28T03:20:44.555Z,83.2
2016-05-28T03:21:44.604Z,83.15
2016-05-28T03:22:44.670Z,83.2
2016-05-28T03:23:44.688Z,83.3
2016-05-28T03:24:44.738Z,83.2
2016-05-28T03:25:44.803Z,83.2
2016-05-28T03:26:44.821Z,83.3
2016-05-28T03:27:44.839Z,83.49
2016-05-28T03:28:44.905Z,83.39
2016-05-28T03:29:44.814Z,83.3
2016-05-28T03:30:44.973Z,82.82
2016-05-28T03:31:45.038Z,83.01
2016-05-28T03:32:45.056Z,82.43
2016-05-28T03:33:45.106Z,82.82
2016-05-28T03:34:45.546Z,82.63
2016-05-28T03:35:45.033Z,82.53
2016-05-28T03:36:45.255Z,82.34
2016-05-28T03:37:45.272Z,82.63
2016-05-28T03:38:45.307Z,82.38
2016-05-28T03:39:45.355Z,82.43
2016-05-28T03:40:45.249Z,82.57
2016-05-28T03:41:45.425Z,82.57
2016-05-28T03:42:45.474Z,82.53
2016-05-28T03:43:45.491Z,82.53
2016-05-28T03:44:45.542Z,82.73
2016-05-28T03:45:45.576Z,82.73
2016-05-28T03:46:45.641Z,82.73
2016-05-28T03:47:45.549Z,82.57
2016-05-28T03:48:45.709Z,82.67
2016-05-28T03:49:45.758Z,82.29
2016-05-28T03:50:45.793Z,82.86
2016-05-28T03:51:45.842Z,82.38
2016-05-28T03:52:45.907Z,82.38
2016-05-28T03:53:45.910Z,82.29
2016-05-28T03:54:45.991Z,82.48
2016-05-28T03:55:45.993Z,82.38
2016-05-28T03:56:46.042Z,82.38
2016-05-28T03:57:46.076Z,82.57
2016-05-28T03:58:46.126Z,82.19
2016-05-28T03:59:46.159Z,82.19
2016-05-28T04:00:46.209Z,82
2016-05-28T04:01:46.244Z,81.81
2016-05-28T04:02:46.278Z,82.29
2016-05-28T04:03:46.156Z,82.29
2016-05-28T04:04:46.392Z,82.48
2016-05-28T04:05:46.442Z,82.29
2016-05-28T04:06:46.445Z,82.76
2016-05-28T04:07:46.494Z,82.86
2016-05-28T04:08:46.543Z,82.57
2016-05-28T04:09:46.578Z,82.38
2016-05-28T04:10:46.611Z,82.67
2016-05-28T04:11:46.661Z,83.15
2016-05-28T04:12:46.711Z,83.15
2016-05-28T04:13:46.744Z,83.25
2016-05-28T04:14:46.779Z,83.05
2016-05-28T04:15:46.828Z,83.15
2016-05-28T04:16:46.722Z,82.86
2016-05-28T04:17:46.912Z,83.05
2016-05-28T04:18:46.930Z,83.25
2016-05-28T04:19:47.011Z,83.34
2016-05-28T04:20:47.029Z,82.96
2016-05-28T04:21:47.048Z,83.63
2016-05-28T04:22:47.096Z,83.53
2016-05-28T04:23:47.131Z,83.15
2016-05-28T04:24:47.196Z,82.96
2016-05-28T04:25:47.090Z,83.53
2016-05-28T04:26:47.264Z,83.44
2016-05-28T04:27:47.345Z,83.25
2016-05-28T04:28:47.347Z,83.44
2016-05-28T04:29:47.381Z,83.34
2016-05-28T04:30:47.431Z,83.44
2016-05-28T04:31:47.495Z,83.63
2016-05-28T04:32:47.514Z,83.53
2016-05-28T04:33:47.548Z,83.53
2016-05-28T04:34:47.816Z,83.44
2016-05-28T04:35:47.631Z,83.05
2016-05-28T04:36:47.666Z,83.63
2016-05-28T04:37:47.716Z,83.72
2016-05-28T04:38:47.797Z,83.15
2016-05-28T04:39:47.799Z,83.63
2016-05-28T04:40:47.864Z,83.05
2016-05-28T04:41:47.898Z,83.53
2016-05-28T04:42:47.932Z,83.25
2016-05-28T04:43:47.966Z,83.15
2016-05-28T04:44:48.000Z,83.25
2016-05-28T04:45:48.034Z,83.53
2016-05-28T04:46:48.083Z,83.25
2016-05-28T04:47:48.118Z,83.53
2016-05-28T04:48:48.167Z,83.25
2016-05-28T04:49:48.638Z,82.86
2016-05-28T04:50:48.251Z,82.86
2016-05-28T04:51:48.285Z,82.76
2016-05-28T04:52:48.334Z,82.57
2016-05-28T04:53:48.243Z,82.57
2016-05-28T04:54:48.402Z,82.76
2016-05-28T04:55:48.451Z,82.9
2016-05-28T04:56:48.532Z,82.81
2016-05-28T04:57:48.534Z,82.62
2016-05-28T04:58:48.568Z,82.81
2016-05-28T04:59:48.618Z,82.62
2016-05-28T05:00:48.699Z,82.32
2016-05-28T05:01:48.701Z,82.81
2016-05-28T05:02:48.736Z,82.81
2016-05-28T05:03:48.786Z,82.81
2016-05-28T05:04:49.241Z,82.71
2016-05-28T05:05:48.853Z,82.71
2016-05-28T05:06:48.918Z,82.32
2016-05-28T05:07:48.967Z,82.32
2016-05-28T05:08:48.996Z,82.42
2016-05-28T05:09:49.070Z,82.32
2016-05-28T05:10:49.113Z,82.71
2016-05-28T05:11:49.186Z,82.81
2016-05-28T05:12:49.260Z,82.52
2016-05-28T05:13:49.314Z,82.42
2016-05-28T05:14:49.357Z,82.32
2016-05-28T05:15:49.415Z,82.42
2016-05-28T05:16:49.457Z,82.42
2016-05-28T05:17:49.516Z,82.23
2016-05-28T05:18:49.588Z,82.38
2016-05-28T05:19:49.656Z,82.57
2016-05-28T05:20:49.505Z,82.76
2016-05-28T05:21:49.699Z,82.48
2016-05-28T05:22:49.736Z,82.76
2016-05-28T05:23:49.772Z,82.29
2016-05-28T05:24:49.808Z,82.96
2016-05-28T05:25:49.889Z,83.53
2016-05-28T05:26:49.893Z,83.15
2016-05-28T05:27:49.944Z,83.25
2016-05-28T05:28:50.025Z,83.25
2016-05-28T05:29:50.044Z,83.25
2016-05-28T05:30:50.062Z,83.34
2016-05-28T05:31:50.113Z,82.96
2016-05-28T05:32:50.241Z,83.25
2016-05-28T05:33:50.228Z,83.05
2016-05-28T05:34:50.246Z,83.44
2016-05-28T05:35:50.264Z,83.19
2016-05-28T05:36:50.330Z,83.48
2016-05-28T05:37:50.348Z,83.09
2016-05-28T05:38:50.398Z,83
2016-05-28T05:39:50.447Z,83.29
2016-05-28T05:40:50.496Z,83
2016-05-28T05:41:50.531Z,83.29
2016-05-28T05:42:50.581Z,83.29
2016-05-28T05:43:50.661Z,83.38
2016-05-28T05:44:50.632Z,82.71
2016-05-28T05:45:50.682Z,82.52
2016-05-28T05:46:50.748Z,82.27
2016-05-28T05:47:50.781Z,82.85
2016-05-28T05:48:50.814Z,82.65
2016-05-28T05:49:51.631Z,82.75
2016-05-28T05:50:50.977Z,82.56
2016-05-28T05:51:50.933Z,82.56
2016-05-28T05:52:50.967Z,82.56
2016-05-28T05:53:51.016Z,81.98
2016-05-28T05:54:51.081Z,81.51
2016-05-28T05:55:51.099Z,81.79
2016-05-28T05:56:51.150Z,81.22
2016-05-28T05:57:51.183Z,81.16
2016-05-28T05:58:51.077Z,81.35
2016-05-28T05:59:51.267Z,80.97
2016-05-28T06:00:51.300Z,81.16
2016-05-28T06:01:51.428Z,80.74
2016-05-28T06:02:51.384Z,80.74
2016-05-28T06:03:51.434Z,80.74
2016-05-28T06:04:51.530Z,80.55
2016-05-28T06:05:51.549Z,80.68
2016-05-28T06:06:51.551Z,80.78
2016-05-28T06:07:51.584Z,80.58
2016-05-28T06:08:51.634Z,80.01
2016-05-28T06:09:51.685Z,80.01
2016-05-28T06:10:51.718Z,80.2
2016-05-28T06:11:51.751Z,80.2
2016-05-28T06:12:51.832Z,80.24
2016-05-28T06:13:51.851Z,80.24
2016-05-28T06:14:51.885Z,79.47
2016-05-28T06:15:51.809Z,79.96
2016-05-28T06:16:51.984Z,79.47
2016-05-28T06:17:52.003Z,79.38
2016-05-28T06:18:52.053Z,79.19
2016-05-28T06:19:51.961Z,79.09
2016-05-28T06:20:52.011Z,78.7
2016-05-28T06:21:52.014Z,78.7
2016-05-28T06:22:52.219Z,78.75
2016-05-28T06:23:52.284Z,78.65
2016-05-28T06:24:52.147Z,78.75
2016-05-28T06:25:52.352Z,78.45
2016-05-28T06:26:52.417Z,77.98
2016-05-28T06:27:52.420Z,78.17
2016-05-28T06:28:52.469Z,77.92
2016-05-28T06:29:52.519Z,77.98
2016-05-28T06:30:52.428Z,78.11
2016-05-28T06:31:52.587Z,77.44
2016-05-28T06:32:52.652Z,77.44
2016-05-28T06:33:52.686Z,77.34
2016-05-28T06:34:53.674Z,76.52
2016-05-28T06:35:52.769Z,75.94
2016-05-28T06:36:52.804Z,75.71
2016-05-28T06:37:52.884Z,75.75
2016-05-28T06:38:52.918Z,75.94
2016-05-28T06:39:52.952Z,75.94
2016-05-28T06:40:52.987Z,75.56
2016-05-28T06:41:53.051Z,75.37
2016-05-28T06:42:53.054Z,75.65
2016-05-28T06:43:53.104Z,75.37
2016-05-28T06:44:53.200Z,75.56
2016-05-28T06:45:53.203Z,75.27
2016-05-28T06:46:53.236Z,74.79
2016-05-28T06:47:53.271Z,74.98
2016-05-28T06:48:53.336Z,74.4
2016-05-28T06:49:53.214Z,74.3
2016-05-28T06:50:53.403Z,74.11
2016-05-28T06:51:53.516Z,74.5
2016-05-28T06:52:53.487Z,74.3
2016-05-28T06:53:53.552Z,73.35
2016-05-28T06:54:53.571Z,73.73
2016-05-28T06:55:53.448Z,73.57
2016-05-28T06:56:53.654Z,73.47
2016-05-28T06:57:53.704Z,73.86
2016-05-28T06:58:53.832Z,73.96
2016-05-28T06:59:53.616Z,73.47
2016-05-28T07:00:53.821Z,73.86
2016-05-28T07:01:53.871Z,73.86
2016-05-28T07:02:53.921Z,73.77
2016-05-28T07:03:53.938Z,73.77
2016-05-28T07:04:54.097Z,73.28
2016-05-28T07:05:54.038Z,73.38
2016-05-28T07:06:54.118Z,73.28
2016-05-28T07:07:54.121Z,73.38
2016-05-28T07:08:54.171Z,72.9
2016-05-28T07:09:54.268Z,72.71
2016-05-28T07:10:54.254Z,72.9
2016-05-28T07:11:54.304Z,72.61
2016-05-28T07:12:54.368Z,72.32
2016-05-28T07:13:54.418Z,72.52
2016-05-28T07:14:54.437Z,72.42
2016-05-28T07:15:54.517Z,72.17
2016-05-28T07:16:54.584Z,72.23
2016-05-28T07:17:54.445Z,72.03
2016-05-28T07:18:54.604Z,71.55
2016-05-28T07:19:54.669Z,72.42
2016-05-28T07:20:54.719Z,71.65
2016-05-28T07:21:54.736Z,70.98
2016-05-28T07:22:54.771Z,71.94
2016-05-28T07:23:54.852Z,71.75
2016-05-28T07:24:54.855Z,71.75
2016-05-28T07:25:54.904Z,71.75
2016-05-28T07:26:54.953Z,72.03
2016-05-28T07:27:55.019Z,71.75
2016-05-28T07:28:55.052Z,71.84
2016-05-28T07:29:55.212Z,71.59
2016-05-28T07:30:55.996Z,71.2
2016-05-28T07:31:55.201Z,71.49
2016-05-28T07:32:55.220Z,71.49
2016-05-28T07:33:55.255Z,71.59
2016-05-28T07:34:55.835Z,71.69
2016-05-28T07:35:55.337Z,71.91
2016-05-28T07:36:55.387Z,70.86
2016-05-28T07:37:55.265Z,70.86
2016-05-28T07:38:55.454Z,70.66
2016-05-28T07:39:55.535Z,70.66
2016-05-28T07:40:55.554Z,70.47
2016-05-28T07:41:55.588Z,70.76
2016-05-28T07:42:55.684Z,70.7
2016-05-28T07:43:55.687Z,70.6
2016-05-28T07:44:55.752Z,70.31
2016-05-28T07:45:55.801Z,69.89
2016-05-28T07:46:55.820Z,70.28
2016-05-28T07:47:55.869Z,69.79
2016-05-28T07:48:55.903Z,70.15
2016-05-28T07:49:55.843Z,70.24
2016-05-28T07:50:55.987Z,70.34
2016-05-28T07:51:56.036Z,70.43
2016-05-28T07:52:56.070Z,70.34
2016-05-28T07:53:56.151Z,70.53
2016-05-28T07:54:56.153Z,70.82
2016-05-28T07:55:56.203Z,70.92
2016-05-28T07:56:56.253Z,70.72
2016-05-28T07:57:56.334Z,71.01
2016-05-28T07:58:56.353Z,70.72
2016-05-28T07:59:56.214Z,70.95
2016-05-28T08:00:56.419Z,70.92
2016-05-28T08:01:56.470Z,71.01
2016-05-28T08:02:56.503Z,70.82
2016-05-28T08:03:56.538Z,71.69
2016-05-28T08:04:58.290Z,71.59
2016-05-28T08:05:56.636Z,71.78
2016-05-28T08:06:56.671Z,70.95
2016-05-28T08:07:56.735Z,70.82
2016-05-28T08:08:56.613Z,70.92
2016-05-28T08:09:56.804Z,71.04
2016-05-28T08:10:56.838Z,71.14
2016-05-28T08:11:56.934Z,71.34
2016-05-28T08:12:56.937Z,70.66
2016-05-28T08:13:56.830Z,70.95
2016-05-28T08:14:57.004Z,70.47
2016-05-28T08:15:57.070Z,70.66
2016-05-28T08:16:57.151Z,70.47
2016-05-28T08:17:57.153Z,70.47
2016-05-28T08:18:57.187Z,70.47
2016-05-28T08:19:57.237Z,70.56
2016-05-28T08:20:57.270Z,70.37
2016-05-28T08:21:57.337Z,70.76
2016-05-28T08:22:57.370Z,70.37
2016-05-28T08:23:57.481Z,69.79
2016-05-28T08:24:57.437Z,70.86
2016-05-28T08:25:57.487Z,70.7
2016-05-28T08:26:57.552Z,70.7
2016-05-28T08:27:57.587Z,70.7
2016-05-28T08:28:58.402Z,70.7
2016-05-28T08:29:57.670Z,70.89
2016-05-28T08:30:57.704Z,70.41
2016-05-28T08:31:57.738Z,70.12
2016-05-28T08:32:57.788Z,70.35
2016-05-28T08:34:00.524Z,70.25
2016-05-28T08:34:57.933Z,70.12
2016-05-28T08:35:57.952Z,69.83
2016-05-28T08:36:57.954Z,69.73
2016-05-28T08:37:58.035Z,69.67
2016-05-28T08:39:01.569Z,69.25
2016-05-28T08:39:58.135Z,69.19
2016-05-28T08:40:57.981Z,68.61
2016-05-28T08:41:58.202Z,68.32
2016-05-28T08:42:58.221Z,69.48
2016-05-28T08:43:59.379Z,69.19
2016-05-28T08:44:58.304Z,68.42
2016-05-28T08:45:58.354Z,68.52
2016-05-28T08:46:58.404Z,68.71
2016-05-28T08:47:58.437Z,68.52
2016-05-28T08:48:58.331Z,68.71
2016-05-28T08:49:58.396Z,68.71
2016-05-28T08:50:58.571Z,68.32
2016-05-28T08:51:58.620Z,68.42
2016-05-28T08:52:58.637Z,67.94
2016-05-28T08:53:58.688Z,68.13
2016-05-28T08:54:58.753Z,67.78
2016-05-28T08:55:58.787Z,68.26
2016-05-28T08:56:58.837Z,68.26
2016-05-28T08:57:58.870Z,68.16
2016-05-28T08:58:58.903Z,67.88
2016-05-28T08:59:58.797Z,68.1
2016-05-28T09:00:59.034Z,68.19
2016-05-28T09:01:59.100Z,68.19
2016-05-28T09:02:58.930Z,68.39
2016-05-28T09:03:59.137Z,67.65
2016-05-28T09:04:59.202Z,68.04
2016-05-28T09:05:59.236Z,67.46
2016-05-28T09:06:59.269Z,67.3
2016-05-28T09:07:59.319Z,67.11
2016-05-28T09:08:59.384Z,66.91
2016-05-28T09:09:59.402Z,66.33
2016-05-28T09:10:59.452Z,65.5
2016-05-28T09:11:59.533Z,65.4
2016-05-28T09:12:59.535Z,65.2
2016-05-28T09:13:59.585Z,65.11
2016-05-28T09:14:59.619Z,64.37
2016-05-28T09:15:59.716Z,62.63
2016-05-28T09:16:59.718Z,62.24
2016-05-28T09:17:59.768Z,61.69
2016-05-28T09:18:59.833Z,61.79
2016-05-28T09:19:59.851Z,62.08
2016-05-28T09:20:59.901Z,61.11
2016-05-28T09:21:59.950Z,61.02
2016-05-28T09:23:00.001Z,60.92
2016-05-28T09:24:00.034Z,60.82
2016-05-28T09:25:00.178Z,60.75
2016-05-28T09:26:00.134Z,60.75
2016-05-28T09:27:00.199Z,60.85
2016-05-28T09:28:00.061Z,60.95
2016-05-28T09:29:00.266Z,60.47
2016-05-28T09:30:00.394Z,60.66
2016-05-28T09:31:00.365Z,60.08
2016-05-28T09:32:00.400Z,59.91
2016-05-28T09:33:00.325Z,59.91
2016-05-28T09:34:00.529Z,59.63
2016-05-28T09:35:00.563Z,58.85
2016-05-28T09:36:00.613Z,58.95
2016-05-28T09:37:00.631Z,58.75
2016-05-28T09:38:00.696Z,58.56
2016-05-28T09:39:00.590Z,58.07
2016-05-28T09:40:00.624Z,58.56
2016-05-28T09:41:00.845Z,58.27
2016-05-28T09:42:00.739Z,58.37
2016-05-28T09:43:00.929Z,57.59
2016-05-28T09:44:00.963Z,57.59
2016-05-28T09:45:00.887Z,58.07
2016-05-28T09:46:01.046Z,57.98
2016-05-28T09:47:01.112Z,57.69
2016-05-28T09:48:01.146Z,58.59
2016-05-28T09:49:01.196Z,58.2
2016-05-28T09:50:01.260Z,58.11
2016-05-28T09:51:01.278Z,57.91
2016-05-28T09:52:01.343Z,58.01
2016-05-28T09:53:01.378Z,57.91
2016-05-28T09:54:01.442Z,57.53
2016-05-28T09:55:01.476Z,57.81
2016-05-28T09:56:01.620Z,56.75
2016-05-28T09:57:01.576Z,57.43
2016-05-28T09:58:01.641Z,57.53
2016-05-28T09:59:01.706Z,57.75
2016-05-28T10:00:01.693Z,57.84
2016-05-28T10:01:01.775Z,58.14
2016-05-28T10:02:01.808Z,58.16
2016-05-28T10:03:01.888Z,57.87
2016-05-28T10:04:01.875Z,57.39
2016-05-28T10:05:02.582Z,57.19
2016-05-28T10:06:01.834Z,57.29
2016-05-28T10:07:01.915Z,56.71
2016-05-28T10:08:02.090Z,57.29
2016-05-28T10:09:02.124Z,56.64
2016-05-28T10:10:02.189Z,56.64
2016-05-28T10:11:02.223Z,56.35
2016-05-28T10:12:02.273Z,56.25
2016-05-28T10:13:02.322Z,56.45
2016-05-28T10:14:02.371Z,56.45
2016-05-28T10:15:02.405Z,55.87
2016-05-28T10:16:02.299Z,55.96
2016-05-28T10:17:02.552Z,56.05
2016-05-28T10:18:02.539Z,56.35
2016-05-28T10:19:02.588Z,55.96
2016-05-28T10:20:02.701Z,55.87
2016-05-28T10:21:02.703Z,56.45
2016-05-28T10:22:02.737Z,55.67
2016-05-28T10:23:02.787Z,54.7
2016-05-28T10:24:02.883Z,54.72
2016-05-28T10:25:02.932Z,54.34
2016-05-28T10:26:02.966Z,53.56
2016-05-28T10:27:02.970Z,53.49
2016-05-28T10:28:03.065Z,53.59
2016-05-28T10:29:02.928Z,53.59
2016-05-28T10:30:03.133Z,53.39
2016-05-28T10:31:03.167Z,52.74
2016-05-28T10:32:03.217Z,52.94
2016-05-28T10:33:03.282Z,52.55
2016-05-28T10:34:03.316Z,52.15
2016-05-28T10:35:03.959Z,52.25
2016-05-28T10:36:03.400Z,52.06
2016-05-28T10:37:03.464Z,52.06
2016-05-28T10:38:03.499Z,52.15
2016-05-28T10:39:03.547Z,52.47
2016-05-28T10:40:03.613Z,51.99
2016-05-28T10:41:03.647Z,51.7
2016-05-28T10:42:03.556Z,51.31
2016-05-28T10:43:03.762Z,50.75
2016-05-28T10:44:03.796Z,51.04
2016-05-28T10:45:03.705Z,50.48
2016-05-28T10:46:03.910Z,50.38
2016-05-28T10:47:03.976Z,50.21
2016-05-28T10:48:03.854Z,49.83
2016-05-28T10:49:04.106Z,49.37
2016-05-28T10:50:04.187Z,48.61
2016-05-28T10:51:04.174Z,47.17
2016-05-28T10:52:04.240Z,46.31
2016-05-28T10:53:04.289Z,45.85
2016-05-28T10:54:04.338Z,44.58
2016-05-28T10:55:05.263Z,43.63
2016-05-28T10:56:04.469Z,42.89
2016-05-28T10:57:04.518Z,41.46
2016-05-28T10:58:04.396Z,40.23
2016-05-28T10:59:04.618Z,40.03
2016-05-28T11:00:04.667Z,39.45
2016-05-28T11:01:04.576Z,38.98
2016-05-28T11:02:04.813Z,38.1
2016-05-28T11:03:04.832Z,36.76
2016-05-28T11:04:04.881Z,35.26
2016-05-28T11:05:04.962Z,33.74
2016-05-28T11:06:05.495Z,32.11
2016-05-28T11:07:05.045Z,29.89
2016-05-28T11:08:05.111Z,28.45
2016-05-28T11:09:05.175Z,26.81
2016-05-28T11:10:05.225Z,25.93
2016-05-28T11:11:05.291Z,25.73
2016-05-28T11:12:05.340Z,25.34
2016-05-28T11:13:05.436Z,24.87
2016-05-28T11:14:05.455Z,24.78
2016-05-28T11:15:05.520Z,25.05
2016-05-28T11:16:05.585Z,25.43
2016-05-28T11:17:05.635Z,25.98
2016-05-28T11:18:05.685Z,26.65
2016-05-28T11:19:05.797Z,27.69
2016-05-28T11:20:06.346Z,28.54
2016-05-28T11:21:05.911Z,29.2
2016-05-28T11:22:05.914Z,30.27
2016-05-28T11:23:05.824Z,29.99
2016-05-28T11:24:06.012Z,30.18
2016-05-28T11:25:06.078Z,29.87
2016-05-28T11:26:06.128Z,30.35
2016-05-28T11:27:06.193Z,30.93
2016-05-28T11:28:06.242Z,30.91
2016-05-28T11:29:06.307Z,31.17
2016-05-28T11:30:06.357Z,31.86
2016-05-28T11:31:06.423Z,32.15
2016-05-28T11:32:06.456Z,31.99
2016-05-28T11:33:06.537Z,31.05
2016-05-28T11:34:06.571Z,30.41
2016-05-28T11:35:07.074Z,28.58
2016-05-28T11:36:06.701Z,26.84
2016-05-28T11:37:06.610Z,26.39
2016-05-28T11:38:06.785Z,25.24
2016-05-28T11:39:06.850Z,24.19
2016-05-28T11:40:06.916Z,23.02
2016-05-28T11:41:06.996Z,22.05
2016-05-28T11:42:07.031Z,21.08
2016-05-28T11:43:07.095Z,19.81
2016-05-28T11:44:07.004Z,19.63
2016-05-28T11:45:07.085Z,19.14
2016-05-28T11:46:07.103Z,18.46
2016-05-28T11:47:07.169Z,18.37
2016-05-28T11:48:07.406Z,18.28
2016-05-28T11:49:07.471Z,17.58
2016-05-28T11:50:08.176Z,18.06
2016-05-28T11:51:07.571Z,18.24
2016-05-28T11:52:07.651Z,18.9
2016-05-28T11:53:07.716Z,19.48
2016-05-28T11:54:07.781Z,20.64
2016-05-28T11:55:07.831Z,21.12
2016-05-28T11:56:07.880Z,20.73
2016-05-28T11:57:07.946Z,20.95
2016-05-28T11:58:08.010Z,20.76
2016-05-28T11:59:08.076Z,19.88
2016-05-28T12:00:08.125Z,19.1
2016-05-28T12:01:08.176Z,19.22
2016-05-28T12:02:08.256Z,18.43
2016-05-28T12:03:08.306Z,17.85
2016-05-28T12:04:08.386Z,17.46
2016-05-28T12:05:09.405Z,16.86
2016-05-28T12:06:08.329Z,16.17
2016-05-28T12:07:08.550Z,16.97
2016-05-28T12:08:08.648Z,16.97
2016-05-28T12:09:08.680Z,16.37
2016-05-28T12:10:08.747Z,17.16
2016-05-28T12:11:08.796Z,17.63
2016-05-28T12:12:08.861Z,18.5
2016-05-28T12:13:08.925Z,18.76
2016-05-28T12:14:09.023Z,20.12
2016-05-28T12:15:09.072Z,20.79
2016-05-28T12:16:09.122Z,21.86
2016-05-28T12:17:09.171Z,22.16
2016-05-28T12:18:09.221Z,21.96
2016-05-28T12:19:09.286Z,22.07
2016-05-28T12:20:09.352Z,21.98
2016-05-28T12:21:09.401Z,21.7
2016-05-28T12:22:09.482Z,21.01
2016-05-28T12:23:09.515Z,21.01
2016-05-28T12:24:09.580Z,21.3
2016-05-28T12:25:09.802Z,21.89
2016-05-28T12:26:09.696Z,22.66
2016-05-28T12:27:09.760Z,22.84
2016-05-28T12:28:09.810Z,23.11
2016-05-28T12:29:09.890Z,23.98
2016-05-28T12:30:09.910Z,24.65
2016-05-28T12:31:09.974Z,25.33
2016-05-28T12:32:10.070Z,25.42
2016-05-28T12:33:10.089Z,26.29
2016-05-28T12:34:10.139Z,26.58
2016-05-28T12:35:10.064Z,26.4
2016-05-28T12:36:10.269Z,26.03
2016-05-28T12:37:10.304Z,25.66
2016-05-28T12:38:10.228Z,24.91
2016-05-28T12:39:10.465Z,23.35
2016-05-28T12:40:10.484Z,22.78
2016-05-28T12:41:10.533Z,22.02
2016-05-28T12:42:10.598Z,21.43
2016-05-28T12:43:10.569Z,20.76
2016-05-28T12:44:10.713Z,20.07
2016-05-28T12:45:10.778Z,19.29
2016-05-28T12:46:10.889Z,19.29
2016-05-28T12:47:10.893Z,18.62
2016-05-28T12:48:10.974Z,18.13
2016-05-28T12:49:11.022Z,17.44
2016-05-28T12:50:10.932Z,17.05
2016-05-28T12:51:11.153Z,16.77
2016-05-28T12:52:11.046Z,15.77
2016-05-28T12:53:11.252Z,15.97
2016-05-28T12:54:11.349Z,15.67
2016-05-28T12:55:11.382Z,15.08
2016-05-28T12:56:11.463Z,15.77